Terminal Aerodrome Forecast
Issued by NWS Norman, OK

Current Version | Previous Version | Text Only | Print | Product List | Glossary Off
Versions: 1 2 3 4 5 6 7 8 9 10 11 12 13 14 15 16 17 18 19 20 21 22 23 24 25 26 27 28 29 30 31 32 33

000
FTUS44 KOUN 190954 AAA
TAFOKC
TAF AMD
KOKC 190954Z 1910/2006 03005KT 1/2SM FG OVC002
     FM191600 02004KT 3SM BR OVC005
     FM191900 36003KT P6SM OVC012=

USA.gov is the U.S. government's official web portal to all federal, state and local government web resources and services.